»·PEaware :: RRF98 KBOI-KGTF

RRF98 :: KBOI-KGTF

FLIGHT INFORMATION

Flight Status: Arrived
Operator: Unknown
More flights by this operator :: More flights under this callsign
Pilot: Matthew M. (8235)
Aircraft: BRITISH AERO BAe-146-100 STATESMAN
(B461)
More flights by this aircraft type
Origin: KBOI Boise Air Terminal/Gowen
United States
Destination: KGTF Great Falls Intl
United States
More flights between these airports :: More routes between these airports
Route: +BOI3 BOI J7 GTF
File this flight plan on PilotEdge
Remarks:
Altitude:
(Current/Filed)
25,000ft
Speed:
(Current/Filed)
400kts
Departed: 02-May-20 08:57 AM
Arrived: 02-May-20 09:53 AM
Distance/Time
Traveled:
311nm/0:56
Distance/Time
To Go:
Arrived

Flight Plot

Page will automatically refresh every two minutes.


Map Options




Map Legend


Flown Route
Filed Route
Departure Airport
Arrival Airport
Navaid (VOR, NDB)
Fix

Horizontal Profiles

Position Reports

Time Latitude Longitude Heading Altitude Ground
Speed
02-May-20 08:38 43.566761 -116.218356 314 2879ft 0kts
02-May-20 08:39 43.566761 -116.218356 314 2879ft 0kts
02-May-20 08:40 43.566761 -116.218356 314 2879ft 0kts
02-May-20 08:41 43.566761 -116.218356 314 2879ft 0kts
02-May-20 08:42 43.566761 -116.218356 314 2879ft 0kts
02-May-20 08:43 43.566761 -116.218356 314 2879ft 0kts
02-May-20 08:44 43.566761 -116.218356 314 2879ft 0kts
02-May-20 08:45 43.566761 -116.218356 314 2879ft 0kts
02-May-20 08:46 43.566761 -116.218356 314 2879ft 0kts
02-May-20 08:47 43.566761 -116.218356 314 2879ft 0kts
02-May-20 08:48 43.566761 -116.218356 314 2879ft 0kts
02-May-20 08:49 43.566762 -116.218356 314 2879ft 0kts
02-May-20 08:50 43.566764 -116.218492 224 2879ft 2kts
02-May-20 08:51 43.566514 -116.222309 295 2879ft 14kts
02-May-20 08:52 43.568605 -116.228530 298 2879ft 19kts
02-May-20 08:53 43.570956 -116.235446 289 2879ft 14kts
02-May-20 08:54 43.570767 -116.236178 208 2879ft 0kts
02-May-20 08:55 43.569781 -116.235634 116 2879ft 26kts
02-May-20 08:56 43.555531 -116.195541 120 3572ft 158kts
02-May-20 08:57 43.532132 -116.126231 119 5188ft 218kts
02-May-20 08:58 43.505530 -116.050222 115 7914ft 224kts
02-May-20 08:59 43.475661 -115.962789 115 9622ft 278kts
02-May-20 09:00 43.440718 -115.858786 117 11487ft 316kts
02-May-20 09:01 43.402597 -115.745821 118 14111ft 332kts
02-May-20 09:02 43.362253 -115.628109 118 16669ft 351kts
02-May-20 09:03 43.328462 -115.498282 94 19023ft 379kts
02-May-20 09:04 43.385774 -115.380388 30 21347ft 394kts
02-May-20 09:05 43.481908 -115.307985 25 23739ft 394kts
02-May-20 09:06 43.580064 -115.237310 25 25173ft 408kts
02-May-20 09:07 43.684607 -115.160114 27 25181ft 444kts
02-May-20 09:08 43.794459 -115.073744 27 25191ft 451kts
02-May-20 09:09 43.900685 -114.987851 28 25201ft 437kts
02-May-20 09:10 44.005639 -114.903644 28 25209ft 432kts
02-May-20 09:11 44.109377 -114.820848 27 25213ft 428kts
02-May-20 09:12 44.212373 -114.738533 27 25212ft 426kts
02-May-20 09:13 44.314976 -114.656321 27 25210ft 424kts
02-May-20 09:14 44.417294 -114.574256 27 25208ft 423kts
02-May-20 09:15 44.520097 -114.491510 27 25207ft 430kts
02-May-20 09:16 44.624629 -114.406701 28 25207ft 436kts
02-May-20 09:17 44.730008 -114.320598 28 25209ft 440kts
02-May-20 09:18 44.836036 -114.233668 28 25198ft 442kts
02-May-20 09:19 44.942686 -114.145719 28 25202ft 443kts
02-May-20 09:20 45.047868 -114.054348 32 25203ft 445kts
02-May-20 09:21 45.148065 -113.950738 35 25204ft 446kts
02-May-20 09:22 45.247588 -113.845327 34 25203ft 446kts
02-May-20 09:23 45.347448 -113.740460 34 25202ft 446kts
02-May-20 09:24 45.446746 -113.635407 35 25200ft 446kts
02-May-20 09:25 45.546243 -113.529360 35 25197ft 446kts
02-May-20 09:26 45.645514 -113.423286 35 25196ft 445kts
02-May-20 09:27 45.744825 -113.316567 35 25195ft 445kts
02-May-20 09:28 45.843466 -113.210114 35 24724ft 442kts
02-May-20 09:29 45.940918 -113.104446 35 24103ft 436kts
02-May-20 09:30 46.036870 -112.999908 35 23462ft 429kts
02-May-20 09:31 46.131515 -112.896327 35 22289ft 422kts
02-May-20 09:32 46.223961 -112.794712 35 21072ft 413kts
02-May-20 09:33 46.313774 -112.694311 39 19719ft 403kts
02-May-20 09:34 46.395211 -112.585018 41 18451ft 394kts
02-May-20 09:35 46.474839 -112.478265 40 17236ft 386kts
02-May-20 09:36 46.553893 -112.374432 41 16077ft 379kts
02-May-20 09:37 46.631269 -112.272042 40 15007ft 372kts
02-May-20 09:38 46.707009 -112.171388 41 14043ft 366kts
02-May-20 09:39 46.781755 -112.071595 41 13135ft 361kts
02-May-20 09:40 46.855251 -111.973104 41 12328ft 355kts
02-May-20 09:41 46.927806 -111.876059 41 11559ft 351kts
02-May-20 09:42 46.999314 -111.780771 41 10722ft 346kts
02-May-20 09:43 47.069577 -111.687559 41 10016ft 330kts
02-May-20 09:44 47.149543 -111.667080 345 8654ft 286kts
02-May-20 09:45 47.219479 -111.693707 12 8275ft 249kts
02-May-20 09:46 47.282823 -111.648844 35 8274ft 263kts
02-May-20 09:47 47.336549 -111.575799 50 8014ft 255kts
02-May-20 09:48 47.387238 -111.505876 45 5748ft 255kts
02-May-20 09:49 47.427543 -111.445951 44 4874ft 148kts
02-May-20 09:50 47.452532 -111.408584 45 4152ft 129kts
02-May-20 09:52 47.476315 -111.373521 44 3685ft 64kts
02-May-20 09:53 47.478296 -111.367721 44 3685ft 13kts
02-May-20 09:54 47.479234 -111.365131 1 3685ft 0kts

Navigation Log

Ident Type
Flight plan parsing failed, navigation log unavailable